Time;durP1;ratioP1;P1;durP2;ratioP2;P2;SDS_P1;SDS_P2;PMS_P1;PMS_P2;Temp;Humidity;BMP_temperature;BMP_pressure;BME280_temperature;BME280_humidity;BME280_pressure;Samples;Min_cycle;Max_cycle;Signal;HPM_P1;HPM_P2
2020/12/08 00:02:23;;;;;;;16.92;9.40;;;-2.80;63.50;;;;;;5077240;28;20032;-39
2020/12/08 00:04:48;;;;;;;16.33;8.52;;;-2.80;63.50;;;;;;5074886;28;20423;-38
2020/12/08 00:07:14;;;;;;;26.83;12.40;;;-2.80;63.50;;;;;;5076744;28;20025;-39
2020/12/08 00:09:40;;;;;;;23.45;8.73;;;-2.80;63.60;;;;;;5076911;28;20093;-42
2020/12/08 00:12:09;;;;;;;18.05;8.52;;;-2.80;63.60;;;;;;5076381;28;20485;-38
2020/12/08 00:14:35;;;;;;;26.75;10.32;;;-2.80;63.60;;;;;;5074857;28;20059;-38
2020/12/08 00:17:02;;;;;;;28.77;11.57;;;-2.80;63.40;;;;;;5078608;28;20040;-39
2020/12/08 00:19:28;;;;;;;21.77;9.18;;;-2.80;63.50;;;;;;5077033;28;20020;-42
2020/12/08 00:21:54;;;;;;;19.40;9.85;;;-2.80;63.60;;;;;;5076605;28;20107;-38
2020/12/08 00:24:20;;;;;;;22.15;10.15;;;-2.80;63.60;;;;;;5076658;28;20525;-40
2020/12/08 00:26:45;;;;;;;20.05;10.02;;;-2.80;63.70;;;;;;5076663;28;20082;-42
2020/12/08 00:29:11;;;;;;;20.95;9.52;;;-2.80;63.60;;;;;;5075749;28;20032;-42
2020/12/08 00:31:37;;;;;;;21.45;10.13;;;-2.80;63.60;;;;;;5076373;28;20093;-38
2020/12/08 00:34:04;;;;;;;17.65;8.85;;;-2.80;63.40;;;;;;5076988;28;20016;-39
2020/12/08 00:36:30;;;;;;;20.80;9.00;;;-2.80;63.40;;;;;;5076150;28;20037;-42
2020/12/08 00:38:56;;;;;;;19.90;9.23;;;-2.80;63.60;;;;;;5075863;28;20421;-39
2020/12/08 00:41:22;;;;;;;25.67;9.32;;;-2.80;63.60;;;;;;5076733;28;20072;-38
2020/12/08 00:43:50;;;;;;;20.30;8.95;;;-2.90;63.50;;;;;;5075856;28;20024;-39
2020/12/08 00:46:17;;;;;;;20.38;8.73;;;-2.90;63.50;;;;;;5073808;28;20021;-40
2020/12/08 00:48:44;;;;;;;21.02;10.40;;;-2.90;63.40;;;;;;5075825;28;20041;-42
2020/12/08 00:51:10;;;;;;;18.50;8.80;;;-2.90;63.60;;;;;;5075592;28;20329;-39
2020/12/08 00:53:36;;;;;;;15.13;8.15;;;-2.90;63.60;;;;;;5073229;28;20442;-39
2020/12/08 00:56:12;;;;;;;20.92;9.18;;;-2.90;63.60;;;;;;5075985;28;20024;-39
2020/12/08 00:58:38;;;;;;;20.10;9.52;;;-2.90;63.70;;;;;;5071218;28;20336;-39
2020/12/08 01:01:05;;;;;;;19.10;9.70;;;-3.00;63.80;;;;;;5075641;28;20017;-42
2020/12/08 01:03:32;;;;;;;19.40;8.50;;;-3.00;63.60;;;;;;5075291;28;20310;-42
2020/12/08 01:05:58;;;;;;;17.23;8.65;;;-3.00;63.70;;;;;;5075749;28;20425;-42
2020/12/08 01:08:24;;;;;;;17.52;9.05;;;-3.00;63.80;;;;;;5075180;28;20043;-42
2020/12/08 01:10:52;;;;;;;19.45;9.23;;;-3.10;63.80;;;;;;5075925;28;20024;-40
2020/12/08 01:13:18;;;;;;;15.10;8.38;;;-3.00;64.30;;;;;;5075757;28;20031;-38
2020/12/08 01:15:44;;;;;;;16.40;8.68;;;-3.00;64.10;;;;;;5076036;28;20405;-39
2020/12/08 01:18:10;;;;;;;25.95;8.80;;;-3.00;64.40;;;;;;5076000;28;20430;-41
2020/12/08 01:20:36;;;;;;;18.65;8.75;;;-3.00;64.40;;;;;;5076118;28;20103;-40
2020/12/08 01:23:01;;;;;;;18.92;9.05;;;-3.00;64.30;;;;;;5075968;28;20024;-38
2020/12/08 01:25:27;;;;;;;17.60;9.82;;;-3.00;64.50;;;;;;5076513;28;20430;-40
2020/12/08 01:27:56;;;;;;;19.65;9.95;;;-3.00;64.50;;;;;;5077820;28;20036;-42
2020/12/08 01:30:22;;;;;;;20.67;10.48;;;-3.00;64.60;;;;;;5077063;28;20089;-40
2020/12/08 01:32:47;;;;;;;21.08;10.50;;;-3.00;64.60;;;;;;5077601;28;20026;-41
2020/12/08 01:35:13;;;;;;;26.08;9.70;;;-3.00;64.60;;;;;;5076250;28;20153;-39
2020/12/08 01:37:39;;;;;;;16.90;9.32;;;-2.90;64.80;;;;;;5076512;28;20039;-41
2020/12/08 01:40:05;;;;;;;20.88;10.10;;;-2.90;65.00;;;;;;5076199;28;20116;-41
2020/12/08 01:42:31;;;;;;;21.05;10.10;;;-2.90;65.10;;;;;;5076221;28;20059;-41
2020/12/08 01:44:56;;;;;;;20.73;10.63;;;-2.90;65.60;;;;;;5075725;28;20438;-41
2020/12/08 01:47:22;;;;;;;24.30;10.38;;;-2.90;64.90;;;;;;5076225;28;20056;-42
2020/12/08 01:49:49;;;;;;;16.38;9.20;;;-2.90;64.80;;;;;;5076115;28;20029;-41
2020/12/08 01:52:15;;;;;;;19.20;9.73;;;-2.90;64.80;;;;;;5075863;28;20024;-41
2020/12/08 01:54:51;;;;;;;21.52;9.75;;;-2.90;64.90;;;;;;5076150;28;20012;-41
2020/12/08 01:57:17;;;;;;;19.55;10.20;;;-2.90;64.90;;;;;;5076950;28;20028;-41
2020/12/08 01:59:44;;;;;;;21.13;10.15;;;-2.90;64.80;;;;;;5076812;28;20380;-41
2020/12/08 02:02:10;;;;;;;20.65;10.35;;;-2.90;64.90;;;;;;5075347;28;20037;-41
2020/12/08 02:04:39;;;;;;;23.23;10.50;;;-2.90;65.00;;;;;;5073449;28;20369;-39
2020/12/08 02:07:05;;;;;;;25.05;10.25;;;-2.90;65.20;;;;;;5074482;28;20032;-41
2020/12/08 02:09:37;;;;;;;21.08;10.07;;;-3.00;65.10;;;;;;5074341;28;20048;-39
2020/12/08 02:12:04;;;;;;;18.98;9.77;;;-2.90;65.30;;;;;;5076627;28;20013;-40
2020/12/08 02:14:30;;;;;;;22.52;9.88;;;-3.00;65.40;;;;;;5076108;28;20020;-40
2020/12/08 02:16:56;;;;;;;13.77;7.38;;;-3.00;65.00;;;;;;5075944;28;20027;-39
2020/12/08 02:19:22;;;;;;;22.15;10.05;;;-3.10;65.10;;;;;;5075770;28;20024;-38
2020/12/08 02:21:50;;;;;;;16.88;9.18;;;-3.10;65.30;;;;;;5075436;28;20020;-40
2020/12/08 02:24:19;;;;;;;20.23;8.80;;;-3.10;65.50;;;;;;5076560;28;20116;-40
2020/12/08 02:26:45;;;;;;;18.80;9.77;;;-3.10;65.40;;;;;;5077196;28;20033;-41
2020/12/08 02:29:11;;;;;;;31.40;12.30;;;-3.10;65.40;;;;;;5076157;28;20094;-41
2020/12/08 02:31:40;;;;;;;21.98;10.75;;;-3.10;65.50;;;;;;5076839;28;20028;-40
2020/12/08 02:34:07;;;;;;;21.92;9.70;;;-3.10;65.60;;;;;;5077024;28;20479;-38
2020/12/08 02:36:33;;;;;;;19.63;9.52;;;-3.10;65.70;;;;;;5074770;28;20020;-41
2020/12/08 02:38:59;;;;;;;20.20;9.77;;;-3.00;65.90;;;;;;5078855;28;20048;-41
2020/12/08 02:41:26;;;;;;;18.60;10.20;;;-3.00;65.80;;;;;;5080483;28;20028;-38
2020/12/08 02:43:53;;;;;;;16.23;9.20;;;-3.00;65.60;;;;;;5080559;28;20039;-42
2020/12/08 02:46:19;;;;;;;20.50;9.60;;;-3.00;65.60;;;;;;5079447;28;20024;-42
2020/12/08 02:48:47;;;;;;;18.50;10.32;;;-3.00;65.60;;;;;;5079504;28;20082;-37
2020/12/08 02:51:20;;;;;;;18.33;9.82;;;-3.00;65.60;;;;;;5079888;28;20032;-37
2020/12/08 02:53:46;;;;;;;23.60;10.57;;;-3.00;65.60;;;;;;5079774;28;20476;-37
2020/12/08 02:56:12;;;;;;;22.75;9.40;;;-3.10;65.50;;;;;;5079045;28;20020;-41
2020/12/08 02:58:38;;;;;;;18.90;10.15;;;-3.00;65.50;;;;;;5080410;28;20031;-41
2020/12/08 03:01:05;;;;;;;20.33;10.20;;;-3.10;65.40;;;;;;5077590;28;20080;-38
2020/12/08 03:03:30;;;;;;;18.08;9.70;;;-3.10;65.50;;;;;;5073515;28;20040;-38
2020/12/08 03:05:56;;;;;;;19.30;10.20;;;-3.10;65.70;;;;;;5078283;28;20341;-39
2020/12/08 03:08:22;;;;;;;22.00;11.00;;;-3.10;65.60;;;;;;5078542;28;20045;-41
2020/12/08 03:10:48;;;;;;;23.30;10.98;;;-3.20;65.60;;;;;;5079308;28;20020;-42
2020/12/08 03:13:13;;;;;;;22.30;10.43;;;-3.20;65.60;;;;;;5078530;28;20115;-42
2020/12/08 03:15:39;;;;;;;22.02;11.82;;;-3.30;65.70;;;;;;5078882;28;20024;-42
2020/12/08 03:18:05;;;;;;;22.05;10.48;;;-3.20;65.90;;;;;;5079168;28;20032;-38
2020/12/08 03:20:31;;;;;;;20.08;11.35;;;-3.20;66.10;;;;;;5077614;28;20073;-39
2020/12/08 03:22:57;;;;;;;21.25;10.90;;;-3.20;66.20;;;;;;5077426;28;20103;-39
2020/12/08 03:25:23;;;;;;;16.33;9.35;;;-3.20;66.10;;;;;;5071852;28;20133;-42
2020/12/08 03:27:49;;;;;;;20.45;11.38;;;-3.20;66.10;;;;;;5078216;28;20024;-39
2020/12/08 03:30:14;;;;;;;20.63;10.07;;;-3.20;66.70;;;;;;5078066;28;20040;-38
2020/12/08 03:32:40;;;;;;;22.50;10.30;;;-3.20;66.20;;;;;;5078447;28;20422;-40
2020/12/08 03:35:07;;;;;;;20.25;11.18;;;-3.10;66.30;;;;;;5077374;28;20028;-42
2020/12/08 03:37:32;;;;;;;23.88;10.38;;;-3.20;66.10;;;;;;5075436;28;20473;-42
2020/12/08 03:39:58;;;;;;;19.48;10.50;;;-3.20;66.10;;;;;;5077174;28;20048;-38
2020/12/08 03:42:26;;;;;;;20.70;10.68;;;-3.20;66.20;;;;;;5078180;28;20032;-40
2020/12/08 03:44:52;;;;;;;17.23;9.73;;;-3.20;66.40;;;;;;5078367;28;20028;-42
2020/12/08 03:47:19;;;;;;;27.15;11.57;;;-3.20;66.60;;;;;;5078695;28;20369;-42
2020/12/08 03:49:44;;;;;;;22.08;10.80;;;-3.20;66.50;;;;;;5077902;28;20044;-38
2020/12/08 03:52:10;;;;;;;21.45;10.88;;;-3.20;66.50;;;;;;5077561;28;20020;-39
2020/12/08 03:54:36;;;;;;;19.45;9.07;;;-3.20;66.70;;;;;;5077009;28;20036;-38
2020/12/08 03:57:01;;;;;;;22.90;12.00;;;-3.20;66.90;;;;;;5076974;28;20025;-41
2020/12/08 03:59:30;;;;;;;21.30;11.00;;;-3.20;67.00;;;;;;5077824;28;20058;-41
2020/12/08 04:01:56;;;;;;;23.58;12.35;;;-3.20;67.10;;;;;;5077193;28;20021;-39
2020/12/08 04:04:22;;;;;;;24.15;13.70;;;-3.10;67.30;;;;;;5077979;28;20040;-38
2020/12/08 04:06:47;;;;;;;30.67;15.07;;;-3.10;67.50;;;;;;5077226;28;20020;-41
2020/12/08 04:09:14;;;;;;;25.38;12.50;;;-3.10;67.70;;;;;;5077094;28;20044;-41
2020/12/08 04:11:40;;;;;;;19.70;10.82;;;-3.10;67.80;;;;;;5071270;28;20103;-39
2020/12/08 04:14:06;;;;;;;22.00;11.63;;;-3.00;68.00;;;;;;5078113;28;20087;-38
2020/12/08 04:16:37;;;;;;;22.67;11.45;;;-3.00;67.80;;;;;;5076685;28;20024;-38
2020/12/08 04:19:03;;;;;;;;;;;-3.00;67.70;;;;;;5075728;28;20125;-41
2020/12/08 04:21:30;;;;;;;23.08;10.95;;;-3.00;67.40;;;;;;5076556;28;19911;-41
2020/12/08 04:24:00;;;;;;;24.67;11.32;;;-3.00;67.20;;;;;;5075230;28;20528;-41
2020/12/08 04:26:32;;;;;;;21.87;11.70;;;-3.00;67.30;;;;;;5077073;28;20388;-42
2020/12/08 04:28:59;;;;;;;21.63;10.93;;;-3.10;67.30;;;;;;5076304;28;20056;-41
2020/12/08 04:31:27;;;;;;;22.65;10.48;;;-3.10;67.90;;;;;;5076431;28;20032;-42
2020/12/08 04:33:53;;;;;;;20.67;10.85;;;-3.10;67.60;;;;;;5076827;28;20503;-41
2020/12/08 04:36:20;;;;;;;23.40;12.93;;;-3.10;67.60;;;;;;5076902;28;20068;-41
2020/12/08 04:38:47;;;;;;;25.38;11.52;;;-3.10;67.60;;;;;;5076926;28;20143;-41
2020/12/08 04:41:19;;;;;;;24.05;10.40;;;-3.10;67.60;;;;;;5076735;28;20067;-41
2020/12/08 04:43:46;;;;;;;24.90;12.32;;;-3.10;67.60;;;;;;5077091;28;20130;-41
2020/12/08 04:46:12;;;;;;;27.77;13.18;;;-3.10;67.70;;;;;;5076687;28;20028;-42
2020/12/08 04:48:38;;;;;;;24.85;11.60;;;-3.10;67.60;;;;;;5076650;28;20048;-41
2020/12/08 04:51:05;;;;;;;25.77;12.25;;;-3.10;67.70;;;;;;5076384;28;20446;-42
2020/12/08 04:53:31;;;;;;;23.58;10.93;;;-3.10;67.70;;;;;;5076581;28;20036;-41
2020/12/08 04:55:57;;;;;;;25.58;12.27;;;-3.10;67.60;;;;;;5077019;28;20020;-41
2020/12/08 04:58:24;;;;;;;26.95;11.50;;;-3.10;67.60;;;;;;5076088;28;20315;-41
2020/12/08 05:00:50;;;;;;;25.88;11.95;;;-3.10;67.80;;;;;;5076183;28;20017;-43
2020/12/08 05:03:25;;;;;;;21.98;11.02;;;-3.10;67.70;;;;;;5076530;28;20025;-41
2020/12/08 05:05:51;;;;;;;21.77;11.27;;;-3.10;67.80;;;;;;5076064;28;20025;-41
2020/12/08 05:08:18;;;;;;;23.05;11.35;;;-3.10;67.60;;;;;;5076242;28;20081;-41
2020/12/08 05:10:46;;;;;;;25.55;12.00;;;-3.10;67.60;;;;;;5076535;28;20031;-41
2020/12/08 05:13:17;;;;;;;27.20;12.63;;;-3.10;67.60;;;;;;5076232;28;20020;-41
2020/12/08 05:15:42;;;;;;;28.20;12.18;;;-3.10;67.60;;;;;;5076201;28;20021;-42
2020/12/08 05:18:10;;;;;;;24.35;11.50;;;-3.20;67.40;;;;;;5076430;28;20032;-42
2020/12/08 05:20:36;;;;;;;24.10;11.43;;;-3.20;67.40;;;;;;5076398;28;20033;-42
2020/12/08 05:23:02;;;;;;;24.05;11.23;;;-3.20;67.30;;;;;;5076182;28;20324;-42
2020/12/08 05:25:30;;;;;;;29.40;13.05;;;-3.30;67.30;;;;;;5076100;28;20150;-42
2020/12/08 05:28:00;;;;;;;30.02;14.48;;;-3.30;67.60;;;;;;5076763;28;20033;-42
2020/12/08 05:30:27;;;;;;;28.58;13.52;;;-3.30;68.00;;;;;;5075932;28;20041;-42
2020/12/08 05:32:54;;;;;;;26.95;12.88;;;-3.30;68.10;;;;;;5076172;28;20119;-42
2020/12/08 05:35:24;;;;;;;28.08;12.27;;;-3.20;68.30;;;;;;5074839;28;20059;-42
2020/12/08 05:37:53;;;;;;;29.20;12.60;;;-3.20;68.30;;;;;;5075129;28;20052;-42
2020/12/08 05:40:19;;;;;;;36.72;12.73;;;-3.20;68.10;;;;;;5075914;28;20044;-42
2020/12/08 05:42:47;;;;;;;32.28;12.82;;;-3.20;67.90;;;;;;5074754;28;20078;-43
2020/12/08 05:45:16;;;;;;;26.55;11.68;;;-3.20;67.90;;;;;;5075989;28;20028;-43
2020/12/08 05:47:45;;;;;;;27.20;12.77;;;-3.30;67.80;;;;;;5075124;28;20032;-43
2020/12/08 05:50:11;;;;;;;32.83;12.73;;;-3.30;67.80;;;;;;5076060;28;20060;-47
2020/12/08 05:52:40;;;;;;;32.45;12.38;;;-3.30;67.90;;;;;;5076124;28;20055;-46
2020/12/08 05:55:14;;;;;;;29.48;12.85;;;-3.30;67.90;;;;;;5076264;28;20028;-44
2020/12/08 05:57:40;;;;;;;27.50;11.90;;;-3.40;67.90;;;;;;5076322;28;20032;-41
2020/12/08 06:00:19;;;;;;;30.13;11.93;;;-3.40;67.90;;;;;;5075689;28;20029;-44
2020/12/08 06:02:45;;;;;;;25.55;11.60;;;-3.40;67.80;;;;;;5075053;28;20040;-43
2020/12/08 06:05:11;;;;;;;30.30;12.30;;;-3.40;67.90;;;;;;5074966;28;20029;-44
2020/12/08 06:07:36;;;;;;;31.00;13.38;;;-3.50;68.00;;;;;;5075837;28;20052;-44
2020/12/08 06:10:10;;;;;;;29.27;13.40;;;-3.40;68.20;;;;;;5076494;28;20093;-43
2020/12/08 07:32:05;;;;;;;33.17;13.55;;;-4.50;69.10;;;;;;5154214;27;20329;-43
2020/12/08 07:34:31;;;;;;;27.85;11.55;;;-4.50;70.30;;;;;;5129784;28;20098;-43
2020/12/08 07:36:56;;;;;;;43.53;17.48;;;-4.50;71.40;;;;;;5121627;27;20044;-44
2020/12/08 07:39:23;;;;;;;32.30;13.10;;;-4.40;72.10;;;;;;5112822;28;20020;-46
2020/12/08 07:41:49;;;;;;;44.72;16.98;;;-4.30;72.70;;;;;;5112595;28;20093;-43
2020/12/08 07:44:19;;;;;;;64.90;28.45;;;-4.20;72.90;;;;;;5123664;28;20024;-43
2020/12/08 07:46:51;;;;;;;44.60;19.73;;;-4.10;72.90;;;;;;5131468;28;20305;-43
2020/12/08 07:49:17;;;;;;;34.00;15.90;;;-3.90;73.70;;;;;;5131418;27;20039;-43
2020/12/08 07:51:43;;;;;;;34.08;14.00;;;-3.70;73.70;;;;;;5131670;27;20104;-43
2020/12/08 07:54:09;;;;;;;41.85;17.10;;;-3.60;73.60;;;;;;5129213;27;20432;-44
2020/12/08 07:56:36;;;;;;;36.97;15.13;;;-3.40;73.40;;;;;;5129646;27;20032;-43
2020/12/08 07:59:06;;;;;;;42.65;22.63;;;-3.30;72.90;;;;;;5132372;27;20494;-46
2020/12/08 08:01:40;;;;;;;55.60;27.25;;;-3.20;72.50;;;;;;5133458;27;20368;-42
2020/12/08 08:04:06;;;;;;;37.92;15.65;;;-3.10;72.30;;;;;;5133142;27;20035;-43
2020/12/08 08:06:31;;;;;;;35.38;15.98;;;-3.00;72.30;;;;;;5131937;27;20020;-43
2020/12/08 08:08:57;;;;;;;36.35;15.25;;;-2.90;72.20;;;;;;5129732;27;20085;-44
2020/12/08 08:11:23;;;;;;;55.33;21.88;;;-2.80;72.20;;;;;;5124707;28;20052;-43
2020/12/08 08:13:49;;;;;;;58.50;24.20;;;-2.70;72.20;;;;;;5121630;28;20012;-43
2020/12/08 08:16:18;;;;;;;87.63;34.28;;;-2.60;72.30;;;;;;5130806;27;20405;-43
2020/12/08 08:18:44;;;;;;;136.65;58.70;;;-2.50;72.00;;;;;;5130401;27;20046;-43
2020/12/08 08:21:13;;;;;;;54.08;22.98;;;-2.40;71.70;;;;;;5129625;27;20447;-43
2020/12/08 08:23:39;;;;;;;101.65;42.00;;;-2.40;71.30;;;;;;5124016;28;20122;-43
2020/12/08 08:26:06;;;;;;;171.23;69.70;;;-2.30;70.70;;;;;;5131026;27;20106;-43
2020/12/08 08:28:32;;;;;;;46.33;21.02;;;-2.30;70.50;;;;;;5130414;27;20062;-43
2020/12/08 08:30:57;;;;;;;34.10;16.15;;;-2.30;69.90;;;;;;5128344;27;20096;-43
2020/12/08 08:33:24;;;;;;;38.92;14.48;;;-2.30;69.70;;;;;;5130978;27;20024;-43
2020/12/08 08:35:50;;;;;;;42.58;16.67;;;-2.30;69.80;;;;;;5129275;28;20036;-43
2020/12/08 08:38:16;;;;;;;35.58;16.27;;;-2.30;70.00;;;;;;5131257;27;20034;-43
2020/12/08 08:40:42;;;;;;;30.50;13.65;;;-2.30;70.10;;;;;;5128598;28;20032;-43
2020/12/08 08:43:08;;;;;;;36.75;18.73;;;-2.30;70.10;;;;;;5119188;28;20379;-43
2020/12/08 08:45:34;;;;;;;28.13;13.65;;;-2.20;70.20;;;;;;5117948;28;20384;-43
2020/12/08 08:47:59;;;;;;;34.45;17.88;;;-2.20;70.00;;;;;;5100874;28;20068;-43
2020/12/08 08:50:25;;;;;;;45.65;20.80;;;-2.20;69.70;;;;;;5118691;28;20122;-45
2020/12/08 08:52:51;;;;;;;54.25;24.35;;;-2.20;69.50;;;;;;5117744;28;20177;-45
2020/12/08 08:55:17;;;;;;;87.28;34.58;;;-2.20;69.80;;;;;;5117872;28;20130;-44
2020/12/08 08:57:44;;;;;;;39.35;17.67;;;-2.20;69.20;;;;;;5117378;28;20015;-42
2020/12/08 09:00:12;;;;;;;35.38;16.58;;;-2.10;69.10;;;;;;5113925;28;21312;-41
2020/12/08 09:02:39;;;;;;;50.20;24.35;;;-2.20;69.10;;;;;;5116430;28;20051;-41
2020/12/08 09:05:07;;;;;;;58.00;27.70;;;-2.10;69.10;;;;;;5075572;28;20042;-40
2020/12/08 09:07:32;;;;;;;140.70;59.58;;;-2.10;68.90;;;;;;5115957;28;20027;-41
2020/12/08 09:09:59;;;;;;;80.40;32.92;;;-2.10;68.90;;;;;;5116097;28;20031;-44
2020/12/08 09:12:25;;;;;;;79.47;36.65;;;-2.10;69.00;;;;;;5116810;28;20063;-45
2020/12/08 09:14:55;;;;;;;49.95;25.80;;;-2.10;68.80;;;;;;5117063;28;20016;-43
2020/12/08 09:17:21;;;;;;;37.85;18.73;;;-2.10;68.80;;;;;;5115783;28;20043;-41
2020/12/08 09:19:47;;;;;;;35.70;18.00;;;-2.10;68.80;;;;;;5115901;28;20482;-40
2020/12/08 09:22:12;;;;;;;31.80;14.45;;;-2.10;68.70;;;;;;5118089;28;20020;-43
2020/12/08 09:24:43;;;;;;;34.25;14.07;;;-2.00;68.70;;;;;;5116397;28;20023;-44
2020/12/08 09:27:09;;;;;;;;;;;-2.00;68.50;;;;;;5117377;28;20506;-40
2020/12/08 09:29:36;;;;;;;32.40;15.43;;;-2.00;68.60;;;;;;5117154;28;19903;-40
2020/12/08 09:32:02;;;;;;;29.40;13.98;;;-2.00;68.90;;;;;;5116606;28;20058;-41
2020/12/08 09:34:29;;;;;;;33.38;14.85;;;-2.00;68.60;;;;;;5117227;28;20114;-39
2020/12/08 09:36:56;;;;;;;28.83;14.18;;;-1.90;68.60;;;;;;5117713;28;20415;-43
2020/12/08 09:39:22;;;;;;;30.05;13.90;;;-1.90;68.40;;;;;;5096385;28;20065;-43
2020/12/08 09:41:50;;;;;;;33.85;14.52;;;-1.90;68.10;;;;;;5116244;28;20031;-43
2020/12/08 09:44:16;;;;;;;31.35;14.90;;;-1.90;68.00;;;;;;5115626;28;20441;-43
2020/12/08 09:46:43;;;;;;;32.08;15.20;;;-1.80;67.90;;;;;;5117402;28;20082;-43
2020/12/08 09:49:09;;;;;;;30.55;13.32;;;-1.80;67.80;;;;;;5117868;28;20072;-44
2020/12/08 09:51:35;;;;;;;35.13;15.43;;;-1.80;67.80;;;;;;5117376;28;20042;-44
2020/12/08 09:54:01;;;;;;;35.67;16.33;;;-1.70;67.90;;;;;;5115715;28;20019;-44
2020/12/08 09:56:27;;;;;;;34.45;15.88;;;-1.70;67.70;;;;;;5116314;28;20433;-40
2020/12/08 09:58:53;;;;;;;32.25;14.15;;;-1.70;68.30;;;;;;5117133;28;20026;-42
2020/12/08 10:01:33;;;;;;;38.70;19.02;;;-1.70;67.60;;;;;;5116703;28;20362;-40
2020/12/08 10:03:59;;;;;;;28.90;14.77;;;-1.70;67.90;;;;;;5117272;28;20027;-39
2020/12/08 10:06:25;;;;;;;33.78;15.32;;;-1.60;67.70;;;;;;5116815;28;20036;-40
2020/12/08 10:08:55;;;;;;;28.27;14.15;;;-1.60;67.20;;;;;;5117416;28;20023;-44
2020/12/08 10:11:24;;;;;;;34.55;16.75;;;-1.70;67.20;;;;;;5116884;28;20516;-43
2020/12/08 10:13:50;;;;;;;40.70;16.77;;;-1.60;67.10;;;;;;5117353;28;20019;-44
2020/12/08 10:16:21;;;;;;;26.38;13.15;;;-1.70;67.00;;;;;;5116972;28;20160;-43
2020/12/08 10:18:48;;;;;;;28.65;14.65;;;-1.70;67.00;;;;;;5116794;28;20027;-44
2020/12/08 10:21:24;;;;;;;45.20;21.63;;;-1.70;67.10;;;;;;5115609;28;20425;-43
2020/12/08 10:23:51;;;;;;;42.17;19.70;;;-1.60;67.20;;;;;;5115279;28;20064;-43
2020/12/08 10:26:17;;;;;;;41.65;17.50;;;-1.70;67.10;;;;;;5116304;28;20055;-45
2020/12/08 10:28:43;;;;;;;32.10;15.73;;;-1.70;67.20;;;;;;5116826;28;20027;-45
2020/12/08 10:31:08;;;;;;;48.17;20.02;;;-1.60;67.50;;;;;;5114820;27;20055;-43
2020/12/08 10:33:34;;;;;;;45.22;16.83;;;-1.60;67.70;;;;;;5116422;28;20030;-44
2020/12/08 10:36:00;;;;;;;37.72;16.25;;;-1.60;67.80;;;;;;5114404;28;20051;-44
2020/12/08 10:38:27;;;;;;;39.20;16.17;;;-1.60;67.60;;;;;;5114971;28;20059;-47
2020/12/08 10:40:54;;;;;;;36.38;15.70;;;-1.50;67.70;;;;;;5115253;28;20028;-40
2020/12/08 10:43:20;;;;;;;35.50;15.38;;;-1.50;67.50;;;;;;5113263;28;20011;-41
2020/12/08 10:45:47;;;;;;;48.90;21.38;;;-1.50;67.60;;;;;;5111805;28;20039;-40
2020/12/08 10:48:13;;;;;;;38.70;18.80;;;-1.40;67.50;;;;;;5113899;28;20023;-41
2020/12/08 10:50:39;;;;;;;33.92;15.57;;;-1.40;67.60;;;;;;5113825;28;20072;-40
2020/12/08 10:53:06;;;;;;;33.40;15.07;;;-1.40;67.50;;;;;;5113748;28;20015;-41
2020/12/08 10:55:32;;;;;;;30.83;16.88;;;-1.40;67.30;;;;;;5112801;28;20058;-40
2020/12/08 10:57:58;;;;;;;36.05;18.42;;;-1.30;67.20;;;;;;5113869;28;20132;-42
2020/12/08 11:00:23;;;;;;;42.45;18.92;;;-1.30;67.00;;;;;;5114943;28;20023;-40
2020/12/08 11:02:49;;;;;;;39.70;21.00;;;-1.40;67.00;;;;;;5114445;28;20367;-42
2020/12/08 11:05:15;;;;;;;35.20;17.10;;;-1.40;67.20;;;;;;5113922;28;20033;-45
2020/12/08 11:07:41;;;;;;;34.25;15.63;;;-1.40;67.40;;;;;;5114259;28;20055;-45
2020/12/08 11:10:07;;;;;;;37.83;18.42;;;-1.40;67.30;;;;;;5111127;28;21328;-37
2020/12/08 11:12:33;;;;;;;35.63;17.58;;;-1.40;67.30;;;;;;5115592;28;20318;-41
2020/12/08 11:14:59;;;;;;;35.60;17.23;;;-1.40;67.40;;;;;;5113219;28;20073;-40
2020/12/08 11:17:24;;;;;;;34.92;17.25;;;-1.40;67.40;;;;;;5114327;28;20775;-41
2020/12/08 11:19:50;;;;;;;30.52;15.65;;;-1.40;67.50;;;;;;5106464;28;20421;-41
2020/12/08 11:22:16;;;;;;;34.75;16.98;;;-1.30;67.50;;;;;;5114398;28;20314;-42
2020/12/08 11:24:42;;;;;;;35.90;17.40;;;-1.30;67.40;;;;;;5113881;28;20063;-40
2020/12/08 11:27:18;;;;;;;36.42;17.48;;;-1.40;67.50;;;;;;5110671;28;20080;-41
2020/12/08 11:29:45;;;;;;;36.25;15.10;;;-1.30;67.70;;;;;;5112919;28;20027;-40
2020/12/08 11:32:14;;;;;;;47.50;20.75;;;-1.30;67.70;;;;;;5114275;28;20096;-40
2020/12/08 11:34:39;;;;;;;46.80;22.58;;;-1.30;67.80;;;;;;5113724;28;20023;-41
2020/12/08 11:37:06;;;;;;;54.67;32.22;;;-1.30;67.90;;;;;;5113764;28;20034;-41
2020/12/08 11:39:32;;;;;;;83.72;44.90;;;-1.30;68.00;;;;;;5113658;28;20027;-39
2020/12/08 11:41:58;;;;;;;84.72;47.03;;;-1.30;68.00;;;;;;5114397;28;20088;-39
2020/12/08 11:44:24;;;;;;;65.07;30.95;;;-1.30;67.90;;;;;;5114517;28;20023;-42
2020/12/08 11:46:52;;;;;;;48.53;24.58;;;-1.30;68.00;;;;;;5113771;28;20028;-39
2020/12/08 11:49:19;;;;;;;46.10;20.73;;;-1.30;67.90;;;;;;5110947;28;20019;-40
2020/12/08 11:51:45;;;;;;;39.08;18.35;;;-1.30;67.90;;;;;;5112873;28;20047;-40
2020/12/08 11:54:11;;;;;;;50.90;23.05;;;-1.30;68.00;;;;;;5114044;28;20025;-40
2020/12/08 11:56:37;;;;;;;61.53;26.33;;;-1.30;68.10;;;;;;5113713;28;20751;-39
2020/12/08 11:59:03;;;;;;;56.70;25.38;;;-1.30;68.30;;;;;;5113956;28;20027;-41
2020/12/08 12:01:29;;;;;;;49.22;22.20;;;-1.30;68.30;;;;;;5113988;28;20024;-39
2020/12/08 12:03:54;;;;;;;54.92;27.05;;;-1.30;68.20;;;;;;5114814;28;20455;-42
2020/12/08 12:06:21;;;;;;;45.97;22.75;;;-1.30;68.10;;;;;;5109617;28;20073;-39
2020/12/08 12:08:47;;;;;;;45.72;21.83;;;-1.30;68.20;;;;;;5114589;28;20024;-40
2020/12/08 12:11:13;;;;;;;39.75;19.33;;;-1.30;68.30;;;;;;5115475;28;20044;-45
2020/12/08 12:13:38;;;;;;;45.42;20.48;;;-1.30;68.10;;;;;;5114939;28;20019;-45
2020/12/08 12:16:05;;;;;;;44.80;22.52;;;-1.30;67.90;;;;;;5114195;28;20032;-47
2020/12/08 12:18:31;;;;;;;47.30;22.08;;;-1.30;68.40;;;;;;5117956;28;20324;-44
2020/12/08 12:20:57;;;;;;;46.92;20.63;;;-1.30;67.90;;;;;;5117490;28;20036;-45
2020/12/08 12:23:23;;;;;;;58.00;21.30;;;-1.30;67.90;;;;;;5117262;28;20065;-45
2020/12/08 12:25:49;;;;;;;42.22;17.63;;;-1.30;67.90;;;;;;5118042;28;20107;-47
2020/12/08 12:28:14;;;;;;;31.77;14.82;;;-1.30;68.10;;;;;;5118441;28;20023;-45
2020/12/08 12:30:40;;;;;;;35.30;16.13;;;-1.30;68.00;;;;;;5118435;28;20410;-46
2020/12/08 12:33:06;;;;;;;32.72;17.50;;;-1.30;68.00;;;;;;5117850;28;20027;-44
2020/12/08 12:35:32;;;;;;;34.90;17.13;;;-1.30;68.00;;;;;;5117169;28;20031;-48
2020/12/08 12:37:57;;;;;;;33.53;15.35;;;-1.30;68.20;;;;;;5117591;28;20031;-45
2020/12/08 12:40:23;;;;;;;30.75;14.65;;;-1.40;68.30;;;;;;5118306;28;20031;-45
2020/12/08 12:42:49;;;;;;;33.72;14.40;;;-1.30;68.40;;;;;;5118306;28;20426;-46
2020/12/08 12:45:14;;;;;;;28.33;13.38;;;-1.40;68.40;;;;;;5118561;28;20027;-45
2020/12/08 12:47:40;;;;;;;34.25;17.45;;;-1.40;68.60;;;;;;5117391;28;20019;-49
2020/12/08 12:50:06;;;;;;;31.80;16.13;;;-1.40;68.70;;;;;;5110321;28;20035;-45
2020/12/08 12:52:32;;;;;;;31.13;14.95;;;-1.40;68.90;;;;;;5101916;28;20043;-46
2020/12/08 12:54:58;;;;;;;28.02;14.57;;;-1.50;69.00;;;;;;5118117;28;20032;-40
2020/12/08 12:57:24;;;;;;;25.48;13.32;;;-1.50;69.20;;;;;;5117254;28;20046;-41
2020/12/08 12:59:49;;;;;;;25.55;12.77;;;-1.50;69.30;;;;;;5101351;28;20024;-40
2020/12/08 13:02:15;;;;;;;25.52;13.05;;;-1.50;69.40;;;;;;5097729;28;20032;-42
2020/12/08 13:04:41;;;;;;;39.00;18.20;;;-1.40;69.60;;;;;;5097386;28;20453;-40
2020/12/08 13:07:06;;;;;;;43.00;19.67;;;-1.40;69.80;;;;;;5113611;28;20054;-41
2020/12/08 13:09:32;;;;;;;27.20;13.57;;;-1.30;69.90;;;;;;5117240;28;20027;-41
2020/12/08 13:11:58;;;;;;;27.30;13.63;;;-1.30;69.70;;;;;;5117957;28;20069;-40
2020/12/08 13:14:24;;;;;;;34.83;13.45;;;-1.30;69.40;;;;;;5117474;28;20032;-42
2020/12/08 13:16:50;;;;;;;25.58;13.18;;;-1.30;69.20;;;;;;5116964;28;20024;-40
2020/12/08 13:19:18;;;;;;;36.42;14.60;;;-1.30;69.00;;;;;;5117695;28;20383;-40
2020/12/08 13:21:44;;;;;;;31.08;13.88;;;-1.20;68.90;;;;;;5118300;27;20375;-40
2020/12/08 13:24:10;;;;;;;24.05;12.05;;;-1.20;68.80;;;;;;5117659;28;20024;-41
2020/12/08 13:26:42;;;;;;;26.38;12.93;;;-1.20;68.80;;;;;;5117399;28;20039;-40
2020/12/08 13:29:09;;;;;;;27.17;13.93;;;-1.20;68.90;;;;;;5116999;28;20428;-41
2020/12/08 13:31:35;;;;;;;28.02;13.80;;;-1.20;68.70;;;;;;5116512;28;20045;-47
2020/12/08 13:34:01;;;;;;;24.73;12.32;;;-1.20;68.40;;;;;;5116605;28;20102;-46
2020/12/08 13:36:27;;;;;;;29.02;13.15;;;-1.20;68.40;;;;;;5115742;28;20139;-45
2020/12/08 13:38:52;;;;;;;31.60;14.70;;;-1.20;68.30;;;;;;5116416;28;20504;-45
2020/12/08 13:41:18;;;;;;;23.48;13.35;;;-1.20;68.40;;;;;;5116533;28;20027;-45
2020/12/08 13:43:44;;;;;;;30.98;14.07;;;-1.20;68.40;;;;;;5115888;28;20023;-47
2020/12/08 13:46:10;;;;;;;25.48;12.63;;;-1.20;68.50;;;;;;5114427;28;20023;-45